ADDS METAR Data INFO
IDs: Format: Raw Decoded Include TAF

Data at: 1922 UTC 19 Jul 2018

KJZP 191915Z AUTO 12008KT 10SM SCT030 SCT045 30/21 A3003 RMK AO2 T02950214 PNO
KJZP 191855Z AUTO 11008KT 080V140 10SM BKN030 BKN045 28/21 A3004 RMK AO2 T02830208 PNO
KJZP 191835Z AUTO 14006KT 10SM SCT028 SCT037 28/21 A3004 RMK AO2 T02840206 PNO
KJZP 191815Z AUTO 13008KT 10SM BKN024 BKN032 28/22 A3005 RMK AO2 T02810215 PNO
KJZP 191755Z AUTO 13008KT 10SM BKN024 BKN029 28/21 A3006 RMK AO2 6//// T02780213 10280 20239 PNO
KJZP 191735Z AUTO 12010KT 10SM BKN026 28/21 A3006 RMK AO2 T02790211 PNO
KJZP 191715Z AUTO 12009G15KT 10SM SCT023 SCT029 28/21 A3007 RMK AO2 T02770211 PNO
KJZP 191655Z AUTO 14012G15KT 10SM SCT021 28/22 A3007 RMK AO2 T02780215 PNO
KJZP 191635Z AUTO 14010G14KT 10SM SCT023 SCT035 27/21 A3008 RMK AO2 T02710214 PNO
KJZP 191615Z AUTO 14009KT 10SM SCT023 BKN029 BKN035 28/22 A3008 RMK AO2 T02750215 PNO
KJZP 191555Z AUTO 11008KT 10SM SCT025 SCT032 28/21 A3008 RMK AO2 T02770211 PNO
KJZP 191535Z AUTO 13007KT 10SM CLR 27/21 A3008 RMK AO2 T02720209 PNO
KJZP 191515Z AUTO 14009KT 10SM CLR 27/21 A3007 RMK AO2 T02710208 PNO
KJZP 191455Z AUTO 12008KT 10SM CLR 27/20 A3007 RMK AO2 6//// T02670202 PNO
KJZP 191435Z AUTO 14007KT 10SM CLR 26/20 A3007 RMK AO2 T02630197 PNO
KJZP 191415Z AUTO 14009KT 10SM CLR 26/20 A3007 RMK AO2 T02600197 PNO
KJZP 191355Z AUTO 12007KT 10SM CLR 25/19 A3007 RMK AO2 T02520190 PNO
KJZP 191335Z AUTO 12007KT 10SM SCT036 25/19 A3007 RMK AO2 T02500186 PNO
KJZP 191315Z AUTO 14006KT 10SM SCT036 25/18 A3007 RMK AO2 T02500182 PNO
KJZP 191255Z AUTO 10007KT 10SM SCT031 SCT039 25/18 A3006 RMK AO2 T02490181 PNO
KJZP 191235Z AUTO 12007KT 10SM BKN031 24/18 A3006 RMK AO2 T02440178 PNO
KJZP 191215Z AUTO 13007KT 10SM BKN029 BKN038 24/18 A3006 RMK AO2 T02400178 PNO
KJZP 191155Z AUTO 13006KT 10SM BKN027 BKN034 BKN040 24/18 A3006 RMK AO2 6//// 7//// T02400180 10240 20203 PNO
KJZP 191135Z AUTO 14005KT 10SM OVC025 23/19 A3005 RMK AO2 T02310186 PNO
KJZP 191115Z AUTO 14004KT 10SM SCT023 BKN035 22/19 A3004 RMK AO2 T02180192 PNO
KJZP 191055Z AUTO 16004KT 10SM CLR 22/19 A3004 RMK AO2 T02160191 PNO
KJZP 191035Z AUTO 00000KT 10SM CLR 22/19 A3003 RMK AO2 T02180192 PNO
KJZP 191015Z AUTO 16004KT 10SM CLR 21/19 A3003 RMK AO2 T02140193 PNO
KJZP 190955Z AUTO 16003KT 10SM CLR 21/20 A3002 RMK AO2 T02070195 PNO
KJZP 190935Z AUTO 00000KT 10SM CLR 21/20 A3001 RMK AO2 T02050196 PNO
KJZP 190915Z AUTO 00000KT 10SM CLR 20/19 A3001 RMK AO2 T02040193 PNO
KJZP 190855Z AUTO 00000KT 10SM CLR 21/19 A3001 RMK AO2 6//// T02050193 PNO
KJZP 190835Z AUTO 00000KT 10SM CLR 21/19 A3001 RMK AO2 T02080187 PNO
KJZP 190815Z AUTO 00000KT 10SM CLR 23/19 A3000 RMK AO2 T02250190 PNO
KJZP 190755Z AUTO 00000KT 10SM CLR 21/19 A3001 RMK AO2 T02080187 PNO
KJZP 190735Z AUTO 00000KT 10SM CLR 22/18 A3001 RMK AO2 T02180184 PNO
KJZP 190715Z AUTO 00000KT 10SM CLR 23/18 A3001 RMK AO2 T02270176 PNO
KJZP 190655Z AUTO 00000KT 10SM CLR 22/17 A3001 RMK AO2 T02190174 PNO
KJZP 190635Z AUTO 00000KT 10SM CLR 22/17 A3001 RMK AO2 T02230171 PNO
KJZP 190615Z AUTO 00000KT 10SM CLR 21/17 A3001 RMK AO2 T02120170 PNO
KJZP 190555Z AUTO 00000KT 10SM CLR 21/18 A3002 RMK AO2 6//// T02130176 10269 20208 403090208 PNO
KJZP 190535Z AUTO 00000KT 10SM CLR 21/17 A3003 RMK AO2 T02130167 PNO
KJZP 190515Z AUTO 00000KT 10SM CLR 22/17 A3003 RMK AO2 T02180166 PNO
KJZP 190455Z AUTO 00000KT 10SM CLR 22/17 A3003 RMK AO2 T02210166 PNO
KJZP 190435Z AUTO 00000KT 10SM CLR 22/17 A3003 RMK AO2 T02200173 PNO
KJZP 190415Z AUTO 00000KT 10SM CLR 22/17 A3003 RMK AO2 T02240170 PNO
KJZP 190355Z AUTO 00000KT 10SM CLR 22/17 A3003 RMK AO2 T02160169 PNO
KJZP 190335Z AUTO 00000KT 10SM CLR 21/18 A3004 RMK AO2 T02110181 PNO
KJZP 190315Z AUTO 00000KT 10SM CLR 24/16 A3004 RMK AO2 T02350161 PNO
KJZP 190255Z AUTO 00000KT 10SM CLR 24/16 A3004 RMK AO2 6//// T02420159 PNO
KJZP 190235Z AUTO 36003KT 10SM CLR 24/16 A3003 RMK AO2 T02370156 PNO
KJZP 190215Z AUTO 00000KT 10SM CLR 23/17 A3003 RMK AO2 T02270165 PNO
KJZP 190155Z AUTO 00000KT 10SM CLR 23/18 A3002 RMK AO2 T02270180 PNO
KJZP 190135Z AUTO 34003KT 10SM CLR 24/17 A3001 RMK AO2 T02430170 PNO
KJZP 190115Z AUTO 35003KT 10SM CLR 24/17 A3001 RMK AO2 T02430174 PNO
KJZP 190055Z AUTO 36004KT 10SM CLR 25/18 A3000 RMK AO2 T02510177 PNO
KJZP 190035Z AUTO 35004KT 10SM CLR 26/18 A3000 RMK AO2 T02560180 PNO
KJZP 190015Z AUTO 34005KT 10SM CLR 26/18 A3000 RMK AO2 T02610180 PNO
KJZP 182355Z AUTO 35005KT 10SM CLR 27/19 A2999 RMK AO2 6//// T02690185 10309 20269 PNO
KJZP 182335Z AUTO 34005KT 10SM CLR 28/19 A2999 RMK AO2 T02770187 PNO
KJZP 182315Z AUTO 34007KT 10SM CLR 29/19 A2999 RMK AO2 T02890188 PNO
KJZP 182255Z AUTO 32006KT 10SM CLR 29/22 A2999 RMK AO2 T02880221 PNO
KJZP 182235Z AUTO 31007KT 10SM SCT100 29/22 A2998 RMK AO2 T02910218 PNO
KJZP 182215Z AUTO 31008KT 10SM CLR 30/22 A2998 RMK AO2 T02960222 PNO
KJZP 182155Z AUTO 30008KT 10SM CLR 30/22 A2998 RMK AO2 T02980219 PNO
KJZP 182135Z AUTO 30007KT 10SM CLR 30/22 A2999 RMK AO2 T03000220 PNO
KJZP 182115Z AUTO 32007KT 10SM CLR 30/21 A3000 RMK AO2 T02990214 PNO
KJZP 182055Z AUTO 31008KT 10SM SCT036 SCT060 30/22 A3000 RMK AO2 6//// T03010221 PNO
KJZP 182035Z AUTO 29006KT 10SM SCT036 SCT043 SCT060 30/22 A3000 RMK AO2 T03040217 PNO
KJZP 182015Z AUTO 31008KT 10SM SCT040 31/22 A3001 RMK AO2 T03050219 PNO
KJZP 181955Z AUTO 31005KT 10SM SCT038 31/21 A3001 RMK AO2 T03060207 PNO
KJZP 181935Z AUTO 32005KT 10SM CLR 30/19 A3002 RMK AO2 T03030193 PNO
KJZP 181915Z AUTO 31005KT 10SM CLR 30/21 A3003 RMK AO2 T03030210 PNO
KJZP 181855Z AUTO 32005KT 10SM SCT048 30/19 A3003 RMK AO2 T03040187 PNO
KJZP 181835Z AUTO 34006KT 10SM SCT048 30/19 A3003 RMK AO2 T03040189 PNO
KJZP 181815Z AUTO 28004KT 10SM CLR 30/19 A3004 RMK AO2 T03020187 PNO
KJZP 181755Z AUTO 01005KT 10SM CLR 30/18 A3004 RMK AO2 6//// T02950183 10300 20217 PNO
KJZP 181735Z AUTO 34007KT 10SM CLR 30/19 A3005 RMK AO2 T03000191 PNO
KJZP 181715Z AUTO 30004KT 10SM SCT033 29/19 A3005 RMK AO2 T02920192 PNO
KJZP 181655Z AUTO 32004KT 10SM SCT033 29/22 A3006 RMK AO2 T02940218 PNO
KJZP 181635Z AUTO 00000KT 10SM CLR 28/21 A3006 RMK AO2 T02830214 PNO
KJZP 181615Z AUTO 00000KT 10SM CLR 28/21 A3007 RMK AO2 T02830207 PNO
KJZP 181555Z AUTO 28003KT 10SM CLR 28/21 A3007 RMK AO2 T02810210 PNO
KJZP 181535Z AUTO 00000KT 10SM CLR 28/20 A3007 RMK AO2 T02810197 PNO
KJZP 181515Z AUTO 34005KT 10SM CLR 27/22 A3007 RMK AO2 T02710216 PNO
KJZP 181455Z AUTO 31004KT 10SM CLR 27/22 A3007 RMK AO2 6//// T02700216 PNO
KJZP 181435Z AUTO 33003KT 10SM CLR 27/22 A3007 RMK AO2 T02680220 PNO
KJZP 181415Z AUTO 00000KT 10SM CLR 26/21 A3007 RMK AO2 T02570214 PNO
KJZP 181355Z AUTO 00000KT 10SM CLR 25/22 A3007 RMK AO2 T02470215 PNO
KJZP 181335Z AUTO 00000KT 10SM CLR 24/21 A3008 RMK AO2 T02380214 PNO
KJZP 181315Z AUTO 33005KT 10SM CLR 24/21 A3007 RMK AO2 T02360213 PNO
KJZP 181255Z AUTO 36004KT 10SM CLR 23/21 A3007 RMK AO2 T02310206 PNO
KJZP 181235Z AUTO 33003KT 10SM CLR 23/21 A3006 RMK AO2 T02340207 PNO
KJZP 181215Z AUTO 35003KT 10SM CLR 22/21 A3006 RMK AO2 T02220206 PNO
KJZP 181155Z AUTO 33005KT 10SM CLR 22/21 A3005 RMK AO2 6//// 7//// T02160205 10222 20210 PNO
KJZP 181135Z AUTO 33006KT 10SM CLR 21/21 A3005 RMK AO2 T02130205 PNO
KJZP 181115Z AUTO 33004KT 7SM CLR 21/21 A3004 RMK AO2 T02100205 PNO
KJZP 181055Z AUTO 33006KT 10SM CLR 21/21 A3003 RMK AO2 T02110206 PNO
KJZP 181035Z AUTO 33007KT 10SM CLR 21/21 A3003 RMK AO2 T02120205 PNO
KJZP 181015Z AUTO 33006KT 10SM CLR 21/21 A3002 RMK AO2 T02130205 PNO
KJZP 180955Z AUTO 32006KT 10SM CLR 21/21 A3002 RMK AO2 T02120205 PNO
KJZP 180935Z AUTO 32006KT 7SM CLR 21/21 A3001 RMK AO2 T02110208 PNO
KJZP 180915Z AUTO 31007KT 7SM CLR 21/21 A3001 RMK AO2 T02120210 PNO
KJZP 180855Z AUTO 30004KT 10SM CLR 21/21 A3001 RMK AO2 6//// T02140211 PNO
KJZP 180835Z AUTO 30004KT 5SM BR SCT001 21/21 A3000 RMK AO2 T02110210 PNO
KJZP 180815Z AUTO 30004KT 1 3/4SM BR OVC001 21/21 A3000 RMK AO2 T02120212 PNO
KJZP 180755Z AUTO 00000KT 1 1/4SM BR OVC003 22/21 A3001 RMK AO2 T02150213 PNO
KJZP 180730Z AUTO 36004KT 1 1/2SM BR OVC003 22/22 A3001 RMK AO2 T02150215 PNO